Horton, Texas
Current Conditions -  °F | °C
As of 9:15 AM on Monday 24 Nov 2014 (Local Time) from KASL Reporting Station
Clear Clear  
Wind Chill: 53°   Ceiling: Unl
Heat Index: 53°   Visibility: 10mi
Dew Point: 38°   Wind: 8mph
Humidity: 55%   Direction: 320°NW
Pressure: 30.03"   Gusts: NA
Location:  32.2219°N, 94.1501°W
Report Text: KASL 241515Z AUTO 32007KT 10SM CLR 12/03 A3003 RMK AO1 T01180031
Loading
Personal Weather Stations






























Interactive Weather Map New forecast layout! Learn more

10-Day Weather Forecast

Advertisements
Track Severe Weather on mobile